createdAt,value
2019-01-02T00:00:21.917Z,3.43
2019-01-02T00:02:50.088Z,3.27
2019-01-02T00:05:18.259Z,3.20
2019-01-02T00:07:46.418Z,3.37
2019-01-02T00:10:15.003Z,3.30
2019-01-02T00:12:43.152Z,3.70
2019-01-02T00:15:11.398Z,3.60
2019-01-02T00:17:39.863Z,3.20
2019-01-02T00:20:10.134Z,3.47
2019-01-02T00:22:38.285Z,4.60
2019-01-02T00:25:06.752Z,3.70
2019-01-02T00:27:34.894Z,3.10
2019-01-02T00:30:03.113Z,2.63
2019-01-02T00:32:31.403Z,2.97
2019-01-02T00:34:59.548Z,3.93
2019-01-02T00:37:27.694Z,3.77
2019-01-02T00:39:55.863Z,3.77
2019-01-02T00:42:24.533Z,3.83
2019-01-02T00:44:52.678Z,3.20
2019-01-02T00:47:21.254Z,2.77
2019-01-02T00:49:49.397Z,3.30
2019-01-02T00:52:18.038Z,3.60
2019-01-02T00:54:46.254Z,4.00
2019-01-02T00:57:14.803Z,3.10
2019-01-02T00:59:42.946Z,2.83
2019-01-02T01:02:11.221Z,2.90
2019-01-02T01:04:39.373Z,2.47
2019-01-02T01:07:07.534Z,3.00
2019-01-02T01:09:35.761Z,2.97
2019-01-02T01:12:03.912Z,3.17
2019-01-02T01:14:32.057Z,3.50
2019-01-02T01:17:00.245Z,3.20
2019-01-02T01:19:28.394Z,2.63
2019-01-02T01:21:56.541Z,3.13
2019-01-02T01:24:24.713Z,3.40
2019-01-02T01:26:53.157Z,2.80
2019-01-02T01:29:21.433Z,3.40
2019-01-02T01:31:49.907Z,3.70
2019-01-02T01:34:18.047Z,3.10
2019-01-02T01:36:46.186Z,3.03
2019-01-02T01:39:14.753Z,3.37
2019-01-02T01:41:43.206Z,3.27
2019-01-02T01:44:11.350Z,3.00
2019-01-02T01:46:39.524Z,3.20
2019-01-02T01:49:07.665Z,3.53
2019-01-02T01:51:36.315Z,2.67
2019-01-02T01:54:04.481Z,3.27
2019-01-02T01:56:32.625Z,3.47
2019-01-02T01:59:00.765Z,3.33
2019-01-02T02:01:28.985Z,3.80
2019-01-02T02:03:57.285Z,3.30
2019-01-02T02:06:25.426Z,3.67
2019-01-02T02:08:53.910Z,3.40
2019-01-02T02:11:22.389Z,3.77
2019-01-02T02:13:50.532Z,3.50
2019-01-02T02:16:19.203Z,3.77
2019-01-02T02:18:47.354Z,3.87
2019-01-02T02:21:15.489Z,3.70
2019-01-02T02:23:43.864Z,3.53
2019-01-02T02:26:12.002Z,2.93
2019-01-02T02:28:40.791Z,4.00
2019-01-02T02:31:08.929Z,4.20
2019-01-02T02:33:37.579Z,3.10
2019-01-02T02:36:06.221Z,3.77
2019-01-02T02:38:34.581Z,3.63
2019-01-02T02:41:03.763Z,3.30
2019-01-02T02:43:32.297Z,3.40
2019-01-02T02:46:00.480Z,3.57
2019-01-02T02:48:29.018Z,3.53
2019-01-02T02:50:57.764Z,3.80
2019-01-02T02:53:26.430Z,3.60
2019-01-02T02:55:55.077Z,3.57
2019-01-02T02:58:23.817Z,3.07
2019-01-02T03:00:52.497Z,2.97
2019-01-02T03:03:21.150Z,3.67
2019-01-02T03:05:49.291Z,5.10
2019-01-02T03:08:17.453Z,3.87
2019-01-02T03:10:46.017Z,3.20
2019-01-02T03:13:14.673Z,3.47
2019-01-02T03:15:43.346Z,3.23
2019-01-02T03:18:11.597Z,3.77
2019-01-02T03:20:39.734Z,3.93
2019-01-02T03:23:07.906Z,3.27
2019-01-02T03:25:36.557Z,4.17
2019-01-02T03:28:05.305Z,3.50
2019-01-02T03:30:33.969Z,3.70
2019-01-02T03:33:04.789Z,3.93
2019-01-02T03:35:36.548Z,4.00
2019-01-02T03:38:07.385Z,4.17
2019-01-02T03:40:37.607Z,5.17
2019-01-02T03:43:09.364Z,3.93
2019-01-02T03:45:37.754Z,3.20
2019-01-02T03:48:05.896Z,4.20
2019-01-02T03:50:34.063Z,4.70
2019-01-02T03:53:02.626Z,3.83
2019-01-02T03:55:30.766Z,3.73
2019-01-02T03:57:58.909Z,4.17
2019-01-02T04:00:27.087Z,3.90
2019-01-02T04:02:55.237Z,3.27
2019-01-02T04:05:24.050Z,3.07
2019-01-02T04:07:53.854Z,3.10
2019-01-02T04:10:22.002Z,3.80
2019-01-02T04:12:50.153Z,3.53
2019-01-02T04:15:18.342Z,3.23
2019-01-02T04:17:46.469Z,3.97
2019-01-02T04:20:14.621Z,3.87
2019-01-02T04:22:42.788Z,3.23
2019-01-02T04:25:12.129Z,3.93
2019-01-02T04:27:40.282Z,3.97
2019-01-02T04:30:14.996Z,3.43
2019-01-02T04:32:44.381Z,2.67
2019-01-02T04:35:12.515Z,2.70
2019-01-02T04:37:40.696Z,3.30
2019-01-02T04:40:10.477Z,3.53
2019-01-02T04:42:38.756Z,3.00
2019-01-02T04:45:08.136Z,3.57
2019-01-02T04:47:36.286Z,3.73
2019-01-02T04:50:06.050Z,3.43
2019-01-02T04:52:34.232Z,3.03
2019-01-02T04:55:02.369Z,2.87
2019-01-02T04:57:30.545Z,3.43
2019-01-02T04:59:58.709Z,2.90
2019-01-02T05:02:26.862Z,2.50
2019-01-02T05:04:55.023Z,2.37
2019-01-02T05:07:23.218Z,2.90
2019-01-02T05:09:51.367Z,3.03
2019-01-02T05:12:19.513Z,3.23
2019-01-02T05:14:48.034Z,3.10
2019-01-02T05:17:16.190Z,3.50
2019-01-02T05:19:44.331Z,2.77
2019-01-02T05:22:12.865Z,2.47
2019-01-02T05:24:41.013Z,3.73
2019-01-02T05:27:09.154Z,3.10
2019-01-02T05:29:37.325Z,3.63
2019-01-02T05:32:05.478Z,2.77
2019-01-02T05:34:33.618Z,3.23
2019-01-02T05:37:02.097Z,2.67
2019-01-02T05:39:30.257Z,3.23
2019-01-02T05:41:58.401Z,3.27
2019-01-02T05:44:26.842Z,2.80
2019-01-02T05:46:54.989Z,2.50
2019-01-02T05:49:24.102Z,2.87
2019-01-02T05:51:52.274Z,2.30
2019-01-02T05:54:20.419Z,2.67
2019-01-02T05:56:48.582Z,2.57
2019-01-02T05:59:16.745Z,3.00
2019-01-02T06:01:44.890Z,3.13
2019-01-02T06:04:13.030Z,2.23
2019-01-02T06:06:41.197Z,2.73
2019-01-02T06:09:09.481Z,3.40
2019-01-02T06:11:37.621Z,2.93
2019-01-02T06:14:05.790Z,3.13
2019-01-02T06:16:33.940Z,3.13
2019-01-02T06:19:02.077Z,3.80
2019-01-02T06:21:30.263Z,3.63
2019-01-02T06:23:58.418Z,3.93
2019-01-02T06:26:26.630Z,3.60
2019-01-02T06:28:54.814Z,3.33
2019-01-02T06:31:22.961Z,3.53
2019-01-02T06:33:51.119Z,3.87
2019-01-02T06:36:19.291Z,3.07
2019-01-02T06:38:47.425Z,4.03
2019-01-02T06:41:15.694Z,3.87
2019-01-02T06:43:43.869Z,2.80
2019-01-02T06:46:12.017Z,2.30
2019-01-02T06:48:40.161Z,2.80
2019-01-02T06:51:08.343Z,3.60
2019-01-02T06:53:36.488Z,2.23
2019-01-02T06:56:04.638Z,2.77
2019-01-02T06:58:32.801Z,3.37
2019-01-02T07:01:00.953Z,3.07
2019-01-02T07:03:29.121Z,3.47
2019-01-02T07:05:57.301Z,2.90
2019-01-02T07:08:25.471Z,2.87
2019-01-02T07:10:56.418Z,3.27
2019-01-02T07:13:24.605Z,2.87
2019-01-02T07:15:52.745Z,4.07
2019-01-02T07:18:20.892Z,3.90
2019-01-02T07:20:49.069Z,3.13
2019-01-02T07:23:17.215Z,2.83
2019-01-02T07:25:45.354Z,2.93
2019-01-02T07:28:13.517Z,2.97
2019-01-02T07:30:41.661Z,3.50
2019-01-02T07:33:09.813Z,2.90
2019-01-02T07:35:57.629Z,3.40
2019-01-02T07:38:27.441Z,4.92
2019-01-02T07:41:15.379Z,3.83
2019-01-02T07:43:45.153Z,3.50
2019-01-02T07:46:23.709Z,2.93
2019-01-02T07:49:11.084Z,4.50
2019-01-02T07:51:46.980Z,2.87
2019-01-02T07:54:31.958Z,3.50
2019-01-02T07:57:04.425Z,3.33
2019-01-02T07:59:42.333Z,3.60
2019-01-02T08:02:12.121Z,2.80
2019-01-02T08:04:41.910Z,2.47
2019-01-02T08:07:11.685Z,2.87
2019-01-02T08:09:44.180Z,3.23
2019-01-02T08:12:20.098Z,2.37
2019-01-02T08:15:06.441Z,3.23
2019-01-02T08:17:39.050Z,3.23
2019-01-02T08:20:26.329Z,2.73
2019-01-02T08:22:58.911Z,2.50
2019-01-02T08:25:38.241Z,3.03
2019-01-02T08:28:17.174Z,3.70
2019-01-02T08:30:49.945Z,3.43
2019-01-02T08:33:37.940Z,3.00
2019-01-02T08:36:13.767Z,3.53
2019-01-02T08:38:49.089Z,3.90
2019-01-02T08:41:18.888Z,3.17
2019-01-02T08:43:48.937Z,3.97
2019-01-02T08:46:18.717Z,2.93
2019-01-02T08:48:48.517Z,3.03
2019-01-02T08:51:27.530Z,3.33
2019-01-02T08:54:00.332Z,4.53
2019-01-02T08:56:46.934Z,3.20
2019-01-02T08:59:18.136Z,3.17
2019-01-02T09:01:47.901Z,4.23
2019-01-02T09:04:26.973Z,3.07
2019-01-02T09:06:59.710Z,3.25
2019-01-02T09:09:47.871Z,3.45
2019-01-02T09:12:35.819Z,4.63
2019-01-02T09:15:11.590Z,3.67
2019-01-02T09:17:41.374Z,4.10
2019-01-02T09:20:11.142Z,3.30
2019-01-02T09:22:40.950Z,4.20
2019-01-02T09:25:16.781Z,3.47
2019-01-02T09:27:49.617Z,4.97
2019-01-02T09:30:35.782Z,2.87
2019-01-02T09:33:05.577Z,3.07
2019-01-02T09:35:41.205Z,4.42
2019-01-02T09:38:11.006Z,3.20
2019-01-02T09:40:40.832Z,3.40
2019-01-02T09:43:13.603Z,3.00
2019-01-02T09:46:01.557Z,4.50
2019-01-02T09:48:49.610Z,2.53
2019-01-02T09:51:19.435Z,3.80
2019-01-02T09:53:52.318Z,2.40
2019-01-02T09:56:28.034Z,3.07
2019-01-02T09:59:07.010Z,2.30
2019-01-02T10:01:45.763Z,3.10
2019-01-02T10:04:18.273Z,3.03
2019-01-02T10:06:51.237Z,4.03
2019-01-02T10:09:37.868Z,4.42
2019-01-02T10:12:07.930Z,3.03
2019-01-02T10:14:37.709Z,3.07
2019-01-02T10:17:13.449Z,3.20
2019-01-02T10:19:49.177Z,2.80
2019-01-02T10:22:18.990Z,3.60
2019-01-02T10:24:57.601Z,2.67
2019-01-02T10:27:30.102Z,3.60
2019-01-02T10:30:03.210Z,3.30
2019-01-02T10:32:33.064Z,3.73
2019-01-02T10:35:14.665Z,3.27
2019-01-02T10:37:47.385Z,3.77
2019-01-02T10:40:19.822Z,4.03
2019-01-02T10:42:58.650Z,3.00
2019-01-02T10:45:28.423Z,3.93
2019-01-02T10:47:58.221Z,3.30
2019-01-02T10:50:30.841Z,3.23
2019-01-02T10:53:15.605Z,2.87
2019-01-02T10:55:48.229Z,2.83
2019-01-02T10:58:18.006Z,2.73
2019-01-02T11:00:47.810Z,3.57
2019-01-02T11:03:29.758Z,3.30
2019-01-02T11:06:02.213Z,3.37
2019-01-02T11:08:50.401Z,2.90
2019-01-02T11:11:38.252Z,3.03
2019-01-02T11:14:14.293Z,3.70
2019-01-02T11:16:46.985Z,3.93
2019-01-02T11:19:33.085Z,3.73
2019-01-02T11:22:02.863Z,3.43
2019-01-02T11:24:35.577Z,3.53
2019-01-02T11:27:05.380Z,3.60
2019-01-02T11:29:37.829Z,4.30
2019-01-02T11:32:13.326Z,4.77
2019-01-02T11:34:43.113Z,3.40
2019-01-02T11:37:12.880Z,4.20
2019-01-02T11:39:42.678Z,3.70
2019-01-02T11:42:18.199Z,3.67
2019-01-02T11:44:50.961Z,4.30
2019-01-02T11:47:20.658Z,4.90
2019-01-02T11:49:48.807Z,4.00
2019-01-02T11:52:16.993Z,4.73
2019-01-02T11:54:46.103Z,3.83
2019-01-02T11:57:14.265Z,3.70
2019-01-02T11:59:42.422Z,3.80
2019-01-02T12:02:10.584Z,3.10
2019-01-02T12:04:38.743Z,5.20
2019-01-02T12:07:07.177Z,4.37
2019-01-02T12:09:35.670Z,4.20
2019-01-02T12:12:03.810Z,4.43
2019-01-02T12:14:33.150Z,4.60
2019-01-02T12:17:01.290Z,3.53
2019-01-02T12:19:29.429Z,4.07
2019-01-02T12:21:57.603Z,3.83
2019-01-02T12:24:25.741Z,4.37
2019-01-02T12:26:53.886Z,4.93
2019-01-02T12:29:22.075Z,4.67
2019-01-02T12:31:50.373Z,4.07
2019-01-02T12:34:18.522Z,4.27
2019-01-02T12:36:47.961Z,4.77
2019-01-02T12:39:16.141Z,3.00
2019-01-02T12:41:44.288Z,3.20
2019-01-02T12:44:12.705Z,4.23
2019-01-02T12:46:40.851Z,3.93
2019-01-02T12:49:08.993Z,3.90
2019-01-02T12:51:37.310Z,2.73
2019-01-02T12:54:05.467Z,4.00
2019-01-02T12:56:34.307Z,3.37
2019-01-02T12:59:02.880Z,4.22
2019-01-02T13:01:32.641Z,3.60
2019-01-02T13:04:08.141Z,2.50
2019-01-02T13:06:54.575Z,2.87
2019-01-02T13:09:33.732Z,3.10
2019-01-02T13:12:06.414Z,3.50
2019-01-02T13:14:45.012Z,3.60
2019-01-02T13:17:14.798Z,2.57
2019-01-02T13:19:44.572Z,3.07
2019-01-02T13:22:14.383Z,3.93
2019-01-02T13:24:50.086Z,3.30
2019-01-02T13:27:21.226Z,2.67
2019-01-02T13:29:56.818Z,3.40
2019-01-02T13:32:27.009Z,4.17
2019-01-02T13:35:08.842Z,4.77
2019-01-02T13:37:41.305Z,4.33
2019-01-02T13:40:28.163Z,3.07
2019-01-02T13:42:57.966Z,3.30
2019-01-02T13:45:27.739Z,3.60
2019-01-02T13:48:00.246Z,3.77
2019-01-02T13:50:30.045Z,3.53
2019-01-02T13:52:58.770Z,3.07
2019-01-02T13:55:27.039Z,3.67
2019-01-02T13:57:55.229Z,3.40
2019-01-02T14:00:23.374Z,3.00
2019-01-02T14:03:13.045Z,5.43
2019-01-02T14:06:00.668Z,3.77
2019-01-02T15:31:50.328Z,4.00
2019-01-02T15:34:18.463Z,3.23
2019-01-02T15:36:46.602Z,4.53
2019-01-02T15:39:16.273Z,5.10
2019-01-02T15:41:44.421Z,2.93
2019-01-02T15:44:12.566Z,2.60
2019-01-02T15:46:40.729Z,3.40
2019-01-02T15:49:08.877Z,3.37
2019-01-02T15:51:37.032Z,3.13
2019-01-02T15:54:05.202Z,3.27
2019-01-02T15:56:33.342Z,2.90
2019-01-02T15:59:01.777Z,3.13
2019-01-02T16:01:29.929Z,3.53
2019-01-02T16:03:58.069Z,3.53
2019-01-02T16:06:26.233Z,2.83
2019-01-02T16:08:54.405Z,2.60
2019-01-02T16:11:22.601Z,3.47
2019-01-02T16:13:50.701Z,8.80
2019-01-02T16:16:19.076Z,9.03
2019-01-02T16:18:47.370Z,5.43
2019-01-02T16:21:15.809Z,4.57
2019-01-02T16:23:43.984Z,4.23
2019-01-02T16:26:12.141Z,2.43
2019-01-02T16:28:40.283Z,3.07
2019-01-02T16:31:08.454Z,3.20
2019-01-02T16:33:36.645Z,3.67
2019-01-02T16:36:05.445Z,3.03
2019-01-02T16:38:33.621Z,3.20
2019-01-02T16:41:03.656Z,3.43
2019-01-02T16:43:31.776Z,2.80
2019-01-02T16:46:00.114Z,2.67
2019-01-02T16:48:28.213Z,2.83
2019-01-02T16:50:56.357Z,4.13
2019-01-02T16:53:24.776Z,3.33
2019-01-02T16:55:52.940Z,4.07
2019-01-02T16:58:21.087Z,3.40
2019-01-02T17:00:51.413Z,2.73
2019-01-02T17:03:19.558Z,2.40
2019-01-02T17:05:47.692Z,4.33
2019-01-02T17:08:16.141Z,4.10
2019-01-02T17:10:44.281Z,3.40
2019-01-02T17:13:12.423Z,2.70
2019-01-02T17:15:40.593Z,3.03
2019-01-02T17:18:08.739Z,2.97
2019-01-02T17:20:36.888Z,3.57
2019-01-02T17:23:05.201Z,3.47
2019-01-02T17:25:33.338Z,2.80
2019-01-02T17:28:02.409Z,3.13
2019-01-02T17:30:30.582Z,2.80
2019-01-02T17:32:58.752Z,2.70
2019-01-02T17:35:28.082Z,3.30
2019-01-02T17:37:56.813Z,3.85
2019-01-02T17:40:24.973Z,3.57
2019-01-02T17:42:53.125Z,2.80
2019-01-02T17:45:21.302Z,2.80
2019-01-02T17:47:49.450Z,3.33
2019-01-02T17:50:17.600Z,3.17
2019-01-02T17:52:45.773Z,3.37
2019-01-02T17:55:13.922Z,3.10
2019-01-02T17:57:42.057Z,2.40
2019-01-02T18:00:11.194Z,2.77
2019-01-02T18:02:39.337Z,2.73
2019-01-02T18:05:07.551Z,2.60
2019-01-02T18:07:35.733Z,3.27
2019-01-02T18:10:04.847Z,3.37
2019-01-02T18:12:32.994Z,3.80
2019-01-02T18:15:01.457Z,3.10
2019-01-02T18:17:29.729Z,2.60
2019-01-02T18:19:57.873Z,3.50
2019-01-02T18:22:27.235Z,2.87
2019-01-02T18:24:55.373Z,3.40
2019-01-02T18:27:23.521Z,3.13
2019-01-02T18:29:51.825Z,3.80
2019-01-02T18:32:19.989Z,2.97
2019-01-02T18:34:50.225Z,3.43
2019-01-02T18:37:18.408Z,4.07
2019-01-02T18:39:46.554Z,4.40
2019-01-02T18:42:14.697Z,3.20
2019-01-02T18:44:44.029Z,3.23
2019-01-02T18:47:12.152Z,3.83
2019-01-02T18:49:41.508Z,3.67
2019-01-02T18:52:09.748Z,3.60
2019-01-02T18:54:38.606Z,2.90
2019-01-02T18:57:06.749Z,3.30
2019-01-02T18:59:35.250Z,2.90
2019-01-02T19:02:03.388Z,3.30
2019-01-02T19:04:31.541Z,3.23
2019-01-02T19:06:59.750Z,3.10
2019-01-02T19:09:27.861Z,2.87
2019-01-02T19:11:56.014Z,3.67
2019-01-02T19:14:24.262Z,3.87
2019-01-02T19:16:52.453Z,4.00
2019-01-02T19:19:20.553Z,3.40
2019-01-02T19:21:49.949Z,3.73
2019-01-02T19:24:18.097Z,3.13
2019-01-02T19:26:46.273Z,2.97
2019-01-02T19:29:15.296Z,3.30
2019-01-02T19:31:43.450Z,3.50
2019-01-02T19:34:11.604Z,3.17
2019-01-02T19:36:39.778Z,3.40
2019-01-02T19:39:08.019Z,3.50
2019-01-02T19:41:37.792Z,3.37
2019-01-02T19:44:06.288Z,4.57
2019-01-02T19:46:34.699Z,4.07
2019-01-02T19:49:03.284Z,3.53
2019-01-02T19:51:31.459Z,2.80
2019-01-02T19:53:59.603Z,3.50
2019-01-02T19:56:27.754Z,3.47
2019-01-02T19:58:56.282Z,2.77
2019-01-02T20:01:41.802Z,3.67
2019-01-02T20:04:09.714Z,3.80
2019-01-02T20:06:37.881Z,3.33
2019-01-02T20:09:06.578Z,4.10
2019-01-02T20:11:37.165Z,3.67
2019-01-02T20:14:05.866Z,3.73
2019-01-02T20:16:34.072Z,3.10
2019-01-02T20:19:02.241Z,3.20
2019-01-02T20:21:30.453Z,3.07
2019-01-02T20:23:58.754Z,3.27
2019-01-02T20:26:31.579Z,2.80
2019-01-02T20:28:56.822Z,2.30
2019-01-02T20:31:25.135Z,1.63
2019-01-02T20:33:53.333Z,2.40
2019-01-02T20:36:21.484Z,2.37
2019-01-02T20:38:49.714Z,1.43
2019-01-02T20:41:18.574Z,1.33
2019-01-02T20:43:46.715Z,3.00
2019-01-02T20:46:14.857Z,2.17
2019-01-02T20:48:43.035Z,1.50
2019-01-02T20:51:11.370Z,1.87
2019-01-02T20:53:39.509Z,2.40
2019-01-02T20:56:07.860Z,1.67
2019-01-02T20:58:36.005Z,1.87
2019-01-02T21:01:04.150Z,2.60
2019-01-02T21:03:32.464Z,2.30
2019-01-02T21:06:00.624Z,1.80
2019-01-02T21:08:28.906Z,2.10
2019-01-02T21:10:57.081Z,1.90
2019-01-02T21:13:25.226Z,1.77
2019-01-02T21:15:53.390Z,1.57
2019-01-02T21:18:21.551Z,1.90
2019-01-02T21:20:49.797Z,2.40
2019-01-02T21:23:18.085Z,1.87
2019-01-02T21:25:46.277Z,2.60
2019-01-02T21:28:14.419Z,1.90
2019-01-02T21:30:42.563Z,1.53
2019-01-02T21:33:10.763Z,1.97
2019-01-02T21:35:38.933Z,2.20
2019-01-02T21:38:07.120Z,2.27
2019-01-02T21:40:35.274Z,1.70
2019-01-02T21:43:03.426Z,1.63
2019-01-02T21:45:31.571Z,1.77
2019-01-02T21:48:00.197Z,1.70
2019-01-02T21:50:28.334Z,1.60
2019-01-02T21:52:56.482Z,1.70
2019-01-02T21:55:25.080Z,1.43
2019-01-02T21:57:53.219Z,1.87
2019-01-02T22:00:21.349Z,1.70
2019-01-02T22:02:49.529Z,1.60
2019-01-02T22:05:17.673Z,1.70
2019-01-02T22:07:45.819Z,1.60
2019-01-02T22:10:13.995Z,1.50
2019-01-02T22:12:42.133Z,1.13
2019-01-02T22:15:10.442Z,1.77
2019-01-02T22:17:38.609Z,1.43
2019-01-02T22:20:06.763Z,1.70
2019-01-02T22:22:34.901Z,1.67
2019-01-02T22:25:03.112Z,1.63
2019-01-02T22:27:31.246Z,1.80
2019-01-02T22:29:59.393Z,2.07
2019-01-02T22:32:27.583Z,1.93
2019-01-02T22:34:55.725Z,1.30
2019-01-02T22:37:23.865Z,1.20
2019-01-02T22:39:52.038Z,1.87
2019-01-02T22:42:20.190Z,1.40
2019-01-02T22:44:48.331Z,1.47
2019-01-02T22:47:16.494Z,1.80
2019-01-02T22:49:44.633Z,1.60
2019-01-02T22:52:12.775Z,1.60
2019-01-02T22:54:40.947Z,1.67
2019-01-02T22:57:09.113Z,1.90
2019-01-02T22:59:37.273Z,2.20
2019-01-02T23:02:06.925Z,1.67
2019-01-02T23:04:42.430Z,2.03
2019-01-02T23:07:21.315Z,1.67
2019-01-02T23:10:00.078Z,2.23
2019-01-02T23:12:48.057Z,1.87
2019-01-02T23:15:20.900Z,1.90
2019-01-02T23:17:50.697Z,2.30
2019-01-02T23:20:37.061Z,1.80
2019-01-02T23:23:09.605Z,2.47
2019-01-02T23:25:54.333Z,2.13
2019-01-02T23:28:40.265Z,1.87
2019-01-02T23:31:13.061Z,2.43
2019-01-02T23:33:42.884Z,2.00
2019-01-02T23:36:18.397Z,2.27
2019-01-02T23:38:57.394Z,2.40
2019-01-02T23:41:27.198Z,2.07
2019-01-02T23:44:12.063Z,2.33
2019-01-02T23:46:58.312Z,1.80
2019-01-02T23:49:44.456Z,1.33
2019-01-02T23:52:23.271Z,2.10
2019-01-02T23:55:09.841Z,2.20
2019-01-02T23:57:54.685Z,2.27
